Time;durP1;ratioP1;P1;durP2;ratioP2;P2;SDS_P1;SDS_P2;PMS_P1;PMS_P2;Temp;Humidity;BMP_temperature;BMP_pressure;BME280_temperature;BME280_humidity;BME280_pressure;Samples;Min_cycle;Max_cycle;Signal;HPM_P1;HPM_P2
2022/07/15 00:02:01;;;;;;;0.93;0.63;;;;;;;15.57;73.91;101215.47;5092997;28;21034;-75
2022/07/15 00:04:27;;;;;;;3.13;0.80;;;;;;;15.57;73.71;101212.75;5093868;28;20519;-76
2022/07/15 00:06:54;;;;;;;1.47;0.80;;;;;;;15.56;73.59;101211.16;5093771;28;20523;-76
2022/07/15 00:09:20;;;;;;;2.10;0.93;;;;;;;15.54;73.95;101225.13;5093939;28;20543;-76
2022/07/15 00:11:47;;;;;;;0.90;0.60;;;;;;;15.51;75.29;101227.69;5093906;28;20460;-75
2022/07/15 00:14:14;;;;;;;2.70;0.90;;;;;;;15.50;75.47;101215.97;5093911;28;20535;-75
2022/07/15 00:16:41;;;;;;;0.70;0.47;;;;;;;15.51;74.83;101217.56;5093530;28;20535;-75
2022/07/15 00:19:08;;;;;;;0.80;0.60;;;;;;;15.53;75.12;101223.50;5093787;28;20547;-76
2022/07/15 00:21:35;;;;;;;0.77;0.57;;;;;;;15.50;74.83;101220.63;5093685;28;20488;-75
2022/07/15 00:24:01;;;;;;;0.70;0.50;;;;;;;15.46;75.71;101219.66;5093443;28;20508;-75
2022/07/15 00:26:28;;;;;;;2.13;0.80;;;;;;;15.45;75.79;101223.47;5093378;28;20964;-76
2022/07/15 00:28:54;;;;;;;0.90;0.53;;;;;;;15.39;75.95;101222.84;5093283;28;21036;-76
2022/07/15 00:31:21;;;;;;;1.20;0.60;;;;;;;15.32;75.92;101223.31;5093711;28;20436;-75
2022/07/15 00:33:49;;;;;;;1.43;0.90;;;;;;;15.34;75.31;101228.44;5093285;28;20528;-75
2022/07/15 00:36:16;;;;;;;1.10;0.70;;;;;;;15.26;75.81;101224.56;5093577;28;20531;-75
2022/07/15 00:38:42;;;;;;;1.33;0.70;;;;;;;15.23;76.05;101222.50;5093417;28;20468;-75
2022/07/15 00:41:09;;;;;;;0.90;0.60;;;;;;;15.18;76.67;101228.06;5093440;28;20531;-74
2022/07/15 00:43:36;;;;;;;0.83;0.57;;;;;;;15.16;77.02;101219.41;5093370;28;20931;-75
2022/07/15 00:46:02;;;;;;;1.30;0.90;;;;;;;15.04;77.12;101220.00;5093419;28;20532;-75
2022/07/15 00:48:29;;;;;;;1.00;0.70;;;;;;;15.09;77.22;101222.56;5093379;28;20507;-76
2022/07/15 00:50:57;;;;;;;1.60;1.10;;;;;;;15.05;77.18;101229.81;5093049;28;20532;-75
2022/07/15 00:53:24;;;;;;;0.90;0.73;;;;;;;14.99;77.63;101222.88;5093035;28;20523;-74
2022/07/15 00:55:54;;;;;;;3.33;0.80;;;;;;;14.95;77.76;101224.63;5093311;28;20472;-74
2022/07/15 00:58:24;;;;;;;1.60;0.77;;;;;;;14.86;78.72;101235.47;5092916;28;20495;-75
2022/07/15 01:00:51;;;;;;;1.40;0.80;;;;;;;14.88;79.20;101233.25;5093315;28;20848;-74
2022/07/15 01:03:19;;;;;;;1.60;0.70;;;;;;;14.88;79.56;101236.00;5092923;28;20488;-75
2022/07/15 01:05:46;;;;;;;0.90;0.50;;;;;;;14.92;77.99;101243.53;5093218;28;20440;-75
2022/07/15 01:08:14;;;;;;;2.60;0.80;;;;;;;14.85;77.76;101241.25;5092902;28;20537;-75
2022/07/15 01:10:42;;;;;;;1.20;0.70;;;;;;;14.83;76.73;101243.47;5093205;28;20440;-74
2022/07/15 01:13:08;;;;;;;1.13;0.70;;;;;;;14.79;77.59;101239.81;5093789;28;20448;-74
2022/07/15 01:15:35;;;;;;;1.00;0.73;;;;;;;14.78;78.47;101238.97;5097359;28;20450;-73
2022/07/15 01:18:03;;;;;;;0.80;0.57;;;;;;;14.73;79.76;101235.56;5096901;28;20547;-74
2022/07/15 01:20:30;;;;;;;0.90;0.60;;;;;;;14.76;80.04;101237.69;5096903;28;20535;-75
2022/07/15 01:23:00;;;;;;;1.47;0.90;;;;;;;14.66;80.73;101238.78;5096836;28;21004;-75
2022/07/15 01:25:27;;;;;;;0.80;0.70;;;;;;;14.59;80.80;101241.13;5097156;28;20472;-75
2022/07/15 01:27:54;;;;;;;2.57;0.83;;;;;;;14.60;80.29;101240.00;5097249;28;20510;-73
2022/07/15 01:30:20;;;;;;;1.17;0.83;;;;;;;14.49;81.22;101244.13;5097035;28;20538;-74
2022/07/15 01:32:47;;;;;;;1.33;0.67;;;;;;;14.49;81.12;101242.19;5097035;28;20519;-74
2022/07/15 01:35:14;;;;;;;1.27;0.80;;;;;;;14.44;81.22;101234.13;5096638;28;20447;-74
2022/07/15 01:37:40;;;;;;;2.00;0.83;;;;;;;14.35;81.80;101239.50;5096430;28;20513;-74
2022/07/15 01:40:09;;;;;;;3.13;1.40;;;;;;;14.32;81.58;101231.13;5096844;28;20468;-75
2022/07/15 01:42:36;;;;;;;2.50;1.00;;;;;;;14.33;81.63;101233.53;5096649;28;20483;-73
2022/07/15 01:45:04;;;;;;;4.00;1.03;;;;;;;14.34;81.54;101235.19;5096414;28;20516;-73
2022/07/15 01:47:32;;;;;;;1.10;0.60;;;;;;;14.36;80.90;101234.84;5096635;28;21004;-73
2022/07/15 01:49:57;;;;;;;1.03;0.60;;;;;;;14.32;81.43;101237.38;5096675;28;20440;-74
2022/07/15 01:52:24;;;;;;;0.70;0.40;;;;;;;14.31;81.22;101235.78;5096660;28;20443;-74
2022/07/15 01:54:51;;;;;;;1.00;0.60;;;;;;;14.32;81.53;101236.59;5096617;28;20206;-74
2022/07/15 01:57:19;;;;;;;2.37;0.77;;;;;;;14.34;81.21;101235.19;5096046;28;20531;-74
2022/07/15 01:59:46;;;;;;;1.37;0.90;;;;;;;14.31;81.53;101230.34;5096499;28;20598;-74
2022/07/15 02:02:12;;;;;;;1.40;0.70;;;;;;;14.31;81.24;101226.81;5096392;28;20494;-73
2022/07/15 02:04:39;;;;;;;2.23;1.07;;;;;;;14.31;81.17;101234.97;5096354;28;21012;-74
2022/07/15 02:07:05;;;;;;;1.53;0.93;;;;;;;14.27;81.57;101229.34;5096269;28;20450;-74
2022/07/15 02:09:32;;;;;;;0.90;0.53;;;;;;;14.26;81.44;101233.19;5096360;28;20875;-74
2022/07/15 02:11:59;;;;;;;3.00;0.80;;;;;;;14.22;81.60;101237.66;5096285;28;20527;-74
2022/07/15 02:14:27;;;;;;;1.50;1.00;;;;;;;14.16;82.02;101236.13;5096263;28;20885;-74
2022/07/15 02:16:53;;;;;;;1.87;1.30;;;;;;;14.10;82.51;101240.09;5095827;28;20536;-74
2022/07/15 02:19:20;;;;;;;3.13;1.00;;;;;;;14.04;82.77;101233.97;5095718;28;21050;-74
2022/07/15 02:21:47;;;;;;;2.00;0.80;;;;;;;14.04;83.15;101246.81;5095721;28;20451;-74
2022/07/15 02:24:14;;;;;;;1.17;0.80;;;;;;;13.98;83.13;101239.84;5095928;28;20491;-74
2022/07/15 02:26:41;;;;;;;3.53;1.10;;;;;;;14.01;83.32;101236.50;5095335;28;20437;-75
2022/07/15 02:29:08;;;;;;;1.70;0.80;;;;;;;14.04;82.88;101238.63;5095879;28;20460;-75
2022/07/15 02:31:36;;;;;;;2.30;0.70;;;;;;;14.03;83.35;101242.44;5095593;28;20535;-73
2022/07/15 02:34:03;;;;;;;1.20;0.97;;;;;;;13.95;83.60;101241.28;5095846;28;20475;-74
2022/07/15 02:36:30;;;;;;;1.13;0.70;;;;;;;13.94;84.11;101245.09;5095521;28;20479;-74
2022/07/15 02:38:57;;;;;;;1.17;0.63;;;;;;;13.93;84.20;101239.97;5095674;28;20480;-74
2022/07/15 02:41:23;;;;;;;1.77;0.60;;;;;;;14.00;84.01;101243.88;5095633;28;20460;-73
2022/07/15 02:43:51;;;;;;;1.80;0.70;;;;;;;14.00;83.87;101237.63;5095560;28;20486;-74
2022/07/15 02:46:18;;;;;;;1.50;0.90;;;;;;;13.89;84.40;101240.56;5095633;28;20476;-74
2022/07/15 02:48:46;;;;;;;12.90;1.13;;;;;;;13.89;84.94;101245.22;5095203;28;20911;-74
2022/07/15 02:51:13;;;;;;;1.20;0.87;;;;;;;13.88;85.13;101244.41;5095586;28;20531;-73
2022/07/15 02:53:39;;;;;;;1.17;0.90;;;;;;;13.92;85.09;101243.81;5095724;28;20532;-74
2022/07/15 02:56:07;;;;;;;1.80;1.07;;;;;;;13.93;84.40;101253.59;5095338;28;20531;-75
2022/07/15 02:58:34;;;;;;;2.57;1.10;;;;;;;13.88;84.57;101249.06;5094985;28;20507;-75
2022/07/15 03:01:01;;;;;;;2.07;1.03;;;;;;;13.96;84.93;101250.25;5095342;28;20480;-74
2022/07/15 03:03:28;;;;;;;1.50;0.87;;;;;;;13.93;84.60;101253.59;5095186;28;20481;-74
2022/07/15 03:05:57;;;;;;;1.10;0.70;;;;;;;13.97;84.38;101257.31;5095240;28;20441;-74
2022/07/15 03:08:24;;;;;;;1.13;0.73;;;;;;;13.92;84.59;101260.16;5094815;28;20538;-74
2022/07/15 03:10:51;;;;;;;2.23;0.97;;;;;;;13.92;84.85;101257.41;5095131;28;20498;-74
2022/07/15 03:13:18;;;;;;;3.13;0.70;;;;;;;13.92;85.15;101260.16;5095075;28;20487;-75
2022/07/15 03:15:44;;;;;;;2.17;1.10;;;;;;;13.88;85.48;101262.66;5094768;28;20448;-74
2022/07/15 03:18:12;;;;;;;4.20;1.60;;;;;;;13.93;85.15;101267.19;5094927;28;20457;-74
2022/07/15 03:20:38;;;;;;;2.23;0.73;;;;;;;13.96;85.35;101267.41;5094966;28;20436;-74
2022/07/15 03:23:07;;;;;;;3.00;1.10;;;;;;;13.93;85.03;101264.47;5094535;28;20495;-75
2022/07/15 03:25:33;;;;;;;4.33;1.30;;;;;;;13.94;85.27;101271.53;5094768;28;20531;-74
2022/07/15 03:28:00;;;;;;;1.70;0.73;;;;;;;13.87;85.36;101272.75;5094427;28;20461;-74
2022/07/15 03:30:26;;;;;;;3.13;1.17;;;;;;;13.85;85.87;101271.44;5094744;28;20816;-73
2022/07/15 03:32:54;;;;;;;1.47;1.27;;;;;;;13.88;85.98;101282.53;5094688;28;20472;-74
2022/07/15 03:35:20;;;;;;;1.60;1.17;;;;;;;13.85;85.38;101283.13;5094350;28;20543;-74
2022/07/15 03:37:47;;;;;;;1.67;1.17;;;;;;;13.83;85.80;101282.66;5094517;28;20488;-74
2022/07/15 03:40:15;;;;;;;3.00;1.33;;;;;;;13.81;86.35;101289.50;5094544;28;20487;-73
2022/07/15 03:42:41;;;;;;;1.43;1.10;;;;;;;13.87;85.77;101296.47;5094127;28;20523;-73
2022/07/15 03:45:09;;;;;;;6.37;1.20;;;;;;;13.91;85.52;101285.78;5094394;28;20440;-71
2022/07/15 03:47:36;;;;;;;3.10;1.10;;;;;;;13.82;86.24;101288.41;5094267;28;20554;-72
2022/07/15 03:50:03;;;;;;;1.43;1.13;;;;;;;13.83;86.31;101290.81;5093999;28;20480;-72
2022/07/15 03:52:29;;;;;;;1.33;0.80;;;;;;;13.80;85.55;101288.69;5094279;28;20519;-71
2022/07/15 03:54:56;;;;;;;0.90;0.60;;;;;;;13.86;85.37;101289.41;5094290;28;20440;-72
2022/07/15 03:57:24;;;;;;;1.67;1.03;;;;;;;13.93;85.26;101291.72;5093871;28;20523;-72
2022/07/15 03:59:51;;;;;;;4.93;1.30;;;;;;;13.89;86.28;101292.31;5094163;28;20424;-72
2022/07/15 04:02:18;;;;;;;2.67;1.03;;;;;;;13.94;86.68;101288.66;5093794;28;20498;-72
2022/07/15 04:04:45;;;;;;;1.73;0.87;;;;;;;13.86;87.34;101292.94;5093953;28;20575;-72
2022/07/15 04:07:12;;;;;;;7.10;1.10;;;;;;;13.95;86.54;101293.03;5093960;28;20479;-71
2022/07/15 04:09:38;;;;;;;1.33;0.87;;;;;;;13.92;86.89;101292.84;5109257;22;21005;-69
2022/07/15 04:12:05;;;;;;;7.30;0.97;;;;;;;13.87;87.09;101299.19;5073284;28;20488;-70
2022/07/15 04:14:33;;;;;;;2.30;1.17;;;;;;;13.91;87.35;101294.75;5073400;28;20994;-70
2022/07/15 04:17:00;;;;;;;5.40;1.07;;;;;;;13.89;87.37;101303.22;5073456;28;20524;-69
2022/07/15 04:19:27;;;;;;;1.10;0.80;;;;;;;13.79;88.06;101308.88;5073649;28;20461;-71
2022/07/15 04:21:53;;;;;;;1.83;0.83;;;;;;;13.72;88.17;101305.75;5073738;28;20469;-78
2022/07/15 04:24:20;;;;;;;3.33;1.00;;;;;;;13.71;88.33;101309.59;5073638;28;20513;-73
2022/07/15 04:26:46;;;;;;;1.13;0.80;;;;;;;13.60;89.33;101310.94;5073584;28;20540;-69
2022/07/15 04:29:13;;;;;;;2.50;1.20;;;;;;;13.71;89.00;101311.50;5073384;28;20548;-70
2022/07/15 04:31:41;;;;;;;1.80;1.10;;;;;;;13.73;89.17;101301.94;5073402;28;20480;-71
2022/07/15 04:34:08;;;;;;;3.93;0.90;;;;;;;13.83;88.69;101318.06;5073447;28;20491;-70
2022/07/15 04:36:34;;;;;;;1.43;0.93;;;;;;;13.87;88.63;101315.53;5073462;28;20815;-71
2022/07/15 04:39:01;;;;;;;2.60;0.90;;;;;;;13.99;88.14;101306.81;5073245;28;20489;-70
2022/07/15 04:41:27;;;;;;;2.40;0.70;;;;;;;14.14;87.61;101309.22;5073408;28;20477;-71
2022/07/15 04:43:54;;;;;;;1.20;0.80;;;;;;;14.24;86.95;101310.91;5073249;28;20568;-70
2022/07/15 04:46:21;;;;;;;2.13;0.90;;;;;;;14.26;86.47;101309.50;5073122;28;20955;-69
2022/07/15 04:51:33;;;;;;;3.37;0.93;;;;;;;14.41;85.65;101307.50;5073004;28;20455;-71
2022/07/15 04:53:59;;;;;;;1.10;0.60;;;;;;;14.40;85.79;101309.44;5073127;28;20472;-70
2022/07/15 04:56:26;;;;;;;5.70;1.17;;;;;;;14.43;85.50;101306.06;5073251;28;20449;-71
2022/07/15 04:58:52;;;;;;;1.30;0.80;;;;;;;14.45;85.14;101308.50;5072891;28;20489;-71
2022/07/15 05:01:19;;;;;;;3.47;1.47;;;;;;;14.38;86.16;101315.19;5073156;28;20972;-70
2022/07/15 05:03:46;;;;;;;3.03;1.00;;;;;;;14.35;86.66;101313.09;5073082;28;20580;-71
2022/07/15 05:06:14;;;;;;;1.33;0.70;;;;;;;14.35;86.05;101321.28;5073255;28;20877;-70
2022/07/15 05:08:42;;;;;;;1.10;0.70;;;;;;;14.38;86.68;101323.34;5072623;28;20449;-72
2022/07/15 05:11:08;;;;;;;0.80;0.57;;;;;;;14.48;86.13;101327.81;5073327;28;20469;-69
2022/07/15 05:13:37;;;;;;;5.43;0.90;;;;;;;14.59;85.48;101322.91;5073108;28;20475;-68
2022/07/15 05:16:05;;;;;;;5.07;1.27;;;;;;;14.64;85.12;101333.69;5073196;28;20797;-70
2022/07/15 05:18:32;;;;;;;2.03;0.90;;;;;;;14.74;84.73;101332.63;5072943;28;20437;-70
2022/07/15 05:20:58;;;;;;;0.80;0.60;;;;;;;14.72;84.62;101335.69;5073087;28;20867;-70
2022/07/15 05:23:26;;;;;;;5.83;0.80;;;;;;;14.83;84.17;101339.78;5072727;28;20568;-69
2022/07/15 05:25:53;;;;;;;3.80;0.93;;;;;;;14.86;83.54;101341.06;5072867;28;20469;-69
2022/07/15 05:28:19;;;;;;;1.97;0.73;;;;;;;14.93;82.96;101333.25;5072885;28;20878;-69
2022/07/15 05:30:46;;;;;;;3.17;0.70;;;;;;;14.98;83.51;101335.84;5072782;28;20551;-70
2022/07/15 05:33:15;;;;;;;2.13;0.80;;;;;;;15.06;82.88;101337.81;5072581;28;20485;-69
2022/07/15 05:35:43;;;;;;;1.57;0.80;;;;;;;15.16;81.49;101333.22;5072585;28;20441;-71
2022/07/15 05:38:10;;;;;;;2.10;0.80;;;;;;;15.20;80.62;101343.19;5072848;28;20441;-69
2022/07/15 05:40:38;;;;;;;1.10;0.53;;;;;;;15.22;81.85;101338.22;5072822;28;20457;-69
2022/07/15 05:43:05;;;;;;;1.60;0.80;;;;;;;15.33;82.09;101341.50;5072607;28;20453;-70
2022/07/15 05:45:32;;;;;;;0.70;0.50;;;;;;;15.37;80.62;101346.00;5072808;28;20459;-69
2022/07/15 05:47:59;;;;;;;1.00;0.70;;;;;;;15.47;79.12;101341.38;5073107;28;20520;-70
2022/07/15 05:50:26;;;;;;;2.80;0.70;;;;;;;15.52;79.24;101352.16;5072355;28;20488;-70
2022/07/15 05:52:52;;;;;;;3.33;0.80;;;;;;;15.54;78.69;101345.28;5072891;28;20484;-69
2022/07/15 05:55:19;;;;;;;1.73;0.80;;;;;;;15.65;77.91;101345.81;5072432;28;20437;-70
2022/07/15 05:57:47;;;;;;;0.90;0.53;;;;;;;15.78;76.70;101353.09;5072711;28;20867;-70
2022/07/15 06:00:15;;;;;;;1.00;0.70;;;;;;;15.84;76.68;101351.81;5073358;28;20492;-70
2022/07/15 06:02:42;;;;;;;0.70;0.50;;;;;;;15.88;75.75;101371.91;5076180;28;20488;-72
2022/07/15 06:05:09;;;;;;;1.43;0.60;;;;;;;15.92;77.00;101357.63;5075838;28;21026;-75
2022/07/15 06:07:36;;;;;;;3.90;0.70;;;;;;;15.96;75.43;101369.53;5075877;28;20942;-71
2022/07/15 06:10:03;;;;;;;2.00;0.50;;;;;;;16.02;76.06;101365.50;5075824;28;20567;-70
2022/07/15 06:12:30;;;;;;;2.10;0.60;;;;;;;16.05;75.69;101362.16;5076018;28;20484;-70
2022/07/15 06:14:58;;;;;;;1.43;0.70;;;;;;;16.05;75.55;101362.16;5076101;28;20488;-72
2022/07/15 06:17:24;;;;;;;1.13;0.50;;;;;;;16.10;76.14;101370.19;5075702;28;20528;-71
2022/07/15 06:19:51;;;;;;;2.90;0.80;;;;;;;16.24;76.72;101381.78;5075884;28;20488;-72
2022/07/15 06:22:18;;;;;;;4.20;0.97;;;;;;;16.30;75.22;101382.47;5075879;28;20495;-70
2022/07/15 06:24:44;;;;;;;1.90;0.70;;;;;;;16.44;74.26;101376.84;5075788;28;20481;-69
2022/07/15 06:27:11;;;;;;;4.80;0.90;;;;;;;16.53;73.39;101378.44;5075894;28;20447;-72
2022/07/15 06:29:38;;;;;;;6.17;0.70;;;;;;;16.52;73.60;101381.50;5075410;28;20465;-70
2022/07/15 06:32:07;;;;;;;4.97;0.90;;;;;;;16.57;73.32;101384.88;5075390;28;20947;-70
2022/07/15 06:34:34;;;;;;;0.80;0.43;;;;;;;16.63;73.68;101378.13;5075324;28;20450;-70
2022/07/15 06:37:00;;;;;;;2.23;0.87;;;;;;;16.79;72.66;101380.41;5075319;28;20479;-69
2022/07/15 06:39:27;;;;;;;1.40;0.87;;;;;;;16.83;71.94;101386.84;5075560;28;20492;-70
2022/07/15 06:41:53;;;;;;;4.07;0.70;;;;;;;16.90;71.06;101389.88;5075265;28;20480;-73
2022/07/15 06:44:20;;;;;;;4.00;0.60;;;;;;;16.98;70.13;101388.25;5075618;28;20598;-70
2022/07/15 06:46:47;;;;;;;1.03;0.60;;;;;;;17.05;69.62;101383.91;5075128;28;20998;-69
2022/07/15 06:49:15;;;;;;;0.87;0.47;;;;;;;17.16;69.28;101389.84;5075018;28;20493;-69
2022/07/15 06:51:41;;;;;;;0.70;0.40;;;;;;;17.29;68.59;101390.78;5075290;28;20520;-70
2022/07/15 06:54:08;;;;;;;1.73;0.53;;;;;;;17.32;67.77;101398.34;5074977;28;20475;-69
2022/07/15 06:56:35;;;;;;;1.57;0.70;;;;;;;17.37;67.37;101396.22;5075206;28;20441;-71
2022/07/15 06:59:01;;;;;;;0.70;0.40;;;;;;;17.38;66.96;101397.81;5075175;28;20547;-69
2022/07/15 07:01:28;;;;;;;0.80;0.50;;;;;;;17.35;66.03;101405.88;5074927;28;20473;-71
2022/07/15 07:03:55;;;;;;;1.30;0.60;;;;;;;17.31;66.70;101391.25;5075030;28;20512;-69
2022/07/15 07:06:23;;;;;;;2.00;0.63;;;;;;;17.40;66.84;101401.06;5075071;28;20477;-70
2022/07/15 07:08:52;;;;;;;4.07;1.17;;;;;;;17.33;66.10;101408.97;5074693;28;20859;-69
2022/07/15 07:11:18;;;;;;;2.33;0.80;;;;;;;17.50;66.78;101399.09;5074675;28;20437;-69
2022/07/15 07:13:45;;;;;;;2.17;0.70;;;;;;;17.56;66.75;101406.00;5074920;28;20441;-70
2022/07/15 07:16:12;;;;;;;0.70;0.50;;;;;;;17.67;66.77;101401.75;5074915;28;20442;-68
2022/07/15 07:18:38;;;;;;;0.70;0.40;;;;;;;17.73;65.59;101405.13;5074755;28;20440;-79
2022/07/15 07:21:05;;;;;;;2.33;0.70;;;;;;;17.86;63.74;101402.19;5075876;28;20977;-72
2022/07/15 07:23:34;;;;;;;2.07;0.50;;;;;;;17.83;63.77;101408.31;5075110;28;20444;-75
2022/07/15 07:26:03;;;;;;;1.53;0.80;;;;;;;17.75;63.01;101400.97;5074703;28;20942;-74
2022/07/15 07:28:29;;;;;;;0.63;0.37;;;;;;;17.66;63.29;101400.13;5074820;28;20483;-70
2022/07/15 07:30:56;;;;;;;0.90;0.60;;;;;;;17.76;63.28;101405.31;5074146;28;21033;-70
2022/07/15 07:33:23;;;;;;;1.00;0.60;;;;;;;17.86;60.69;101399.44;5074229;28;20887;-69
2022/07/15 07:35:49;;;;;;;1.70;0.67;;;;;;;17.89;61.72;101412.50;5074080;28;20441;-70
2022/07/15 07:38:16;;;;;;;0.70;0.40;;;;;;;17.96;62.22;101392.78;5074462;28;20481;-69
2022/07/15 07:40:47;;;;;;;1.30;0.50;;;;;;;18.11;62.35;101405.13;5074529;28;20469;-70
2022/07/15 07:43:14;;;;;;;1.50;0.70;;;;;;;18.03;60.22;101405.97;5074381;28;20414;-70
2022/07/15 07:45:41;;;;;;;3.03;0.87;;;;;;;18.02;60.72;101407.13;5074287;28;20481;-69
2022/07/15 07:48:08;;;;;;;1.00;0.63;;;;;;;18.07;61.12;101406.91;5074198;28;20480;-70
2022/07/15 07:50:35;;;;;;;0.70;0.50;;;;;;;18.06;61.10;101403.38;5073571;28;20950;-66
2022/07/15 07:53:02;;;;;;;0.90;0.50;;;;;;;17.95;60.46;101404.06;5073928;28;20532;-69
2022/07/15 07:55:28;;;;;;;3.43;0.60;;;;;;;17.95;59.59;101409.56;5073875;28;20476;-69
2022/07/15 07:57:58;;;;;;;1.03;0.50;;;;;;;18.03;62.43;101411.47;5073980;28;20469;-70
2022/07/15 08:00:27;;;;;;;0.70;0.33;;;;;;;18.03;59.56;101406.78;5073917;28;20493;-69
2022/07/15 08:02:54;;;;;;;0.80;0.60;;;;;;;18.07;59.96;101413.19;5073675;28;20935;-70
2022/07/15 08:05:21;;;;;;;0.80;0.50;;;;;;;18.23;58.11;101409.88;5073746;28;20568;-71
2022/07/15 08:07:48;;;;;;;1.20;0.60;;;;;;;18.27;57.72;101410.81;5073826;28;20476;-70
2022/07/15 08:10:16;;;;;;;2.00;0.50;;;;;;;18.25;58.87;101413.09;5073429;28;21056;-68
2022/07/15 08:12:43;;;;;;;0.97;0.43;;;;;;;18.42;56.83;101413.00;5073597;28;20457;-70
2022/07/15 08:15:13;;;;;;;0.70;0.40;;;;;;;18.43;57.41;101413.78;5073726;28;20517;-70
2022/07/15 08:17:40;;;;;;;0.83;0.40;;;;;;;18.37;56.59;101411.25;5073614;28;20448;-70
2022/07/15 08:20:08;;;;;;;0.77;0.40;;;;;;;18.39;55.26;101413.66;5073597;28;20500;-70
2022/07/15 08:22:35;;;;;;;1.97;0.60;;;;;;;18.46;55.69;101411.19;5072772;28;20445;-69
2022/07/15 08:25:02;;;;;;;1.93;0.70;;;;;;;18.47;56.05;101421.00;5073351;28;20517;-69
2022/07/15 08:27:30;;;;;;;1.53;0.70;;;;;;;18.55;54.58;101419.31;5073646;28;20525;-69
2022/07/15 08:29:56;;;;;;;1.27;0.60;;;;;;;18.30;53.23;101412.91;5073170;28;20480;-69
2022/07/15 08:32:25;;;;;;;0.70;0.40;;;;;;;18.31;54.13;101417.25;5073198;28;20532;-70
2022/07/15 08:34:51;;;;;;;1.23;0.50;;;;;;;18.18;54.86;101419.09;5073158;28;20448;-70
2022/07/15 08:37:18;;;;;;;1.00;0.30;;;;;;;18.27;54.62;101419.84;5073461;28;20473;-69
2022/07/15 08:39:44;;;;;;;2.67;1.10;;;;;;;18.31;55.15;101422.72;5073343;28;20901;-69
2022/07/15 08:42:13;;;;;;;0.90;0.60;;;;;;;18.50;54.93;101419.53;5073061;28;20495;-70
2022/07/15 08:44:40;;;;;;;1.90;0.90;;;;;;;18.50;55.07;101425.00;5073282;28;20567;-69
2022/07/15 08:47:07;;;;;;;1.57;0.80;;;;;;;18.62;54.90;101423.16;5072978;28;20445;-70
2022/07/15 08:49:39;;;;;;;7.70;0.60;;;;;;;18.64;55.24;101418.16;5073254;28;20461;-70
2022/07/15 08:52:06;;;;;;;1.07;0.47;;;;;;;18.65;54.46;101416.19;5073361;28;20442;-70
2022/07/15 08:54:33;;;;;;;0.90;0.53;;;;;;;18.63;55.84;101422.00;5073343;28;20442;-70
2022/07/15 08:57:00;;;;;;;1.33;0.70;;;;;;;18.47;54.66;101425.69;5073367;28;20488;-69
2022/07/15 08:59:26;;;;;;;0.90;0.60;;;;;;;18.30;55.55;101426.63;5073152;28;20516;-70
2022/07/15 09:01:54;;;;;;;1.00;0.50;;;;;;;18.37;56.33;101429.63;5073173;28;20816;-70
2022/07/15 09:04:21;;;;;;;0.83;0.40;;;;;;;18.35;56.16;101424.47;5073281;28;20433;-69
2022/07/15 09:06:50;;;;;;;1.53;0.57;;;;;;;18.36;56.26;101426.06;5073389;28;20441;-69
2022/07/15 09:09:25;;;;;;;0.83;0.50;;;;;;;18.55;56.13;101435.78;5072561;28;20556;-75
2022/07/15 09:12:02;;;;;;;0.80;0.30;;;;;;;18.60;55.59;101438.34;5073119;28;20450;-69
2022/07/15 09:14:30;;;;;;;1.00;0.50;;;;;;;18.63;55.34;101438.47;5073191;28;20464;-70
2022/07/15 09:17:07;;;;;;;1.73;0.70;;;;;;;18.49;54.76;101437.13;5073089;28;20880;-70
2022/07/15 09:20:01;;;;;;;2.60;0.83;;;;;;;18.38;56.09;101431.25;5073261;28;20490;-70
2022/07/15 09:22:31;;;;;;;1.97;0.50;;;;;;;18.40;57.54;101432.50;5073014;28;20434;-72
2022/07/15 09:25:06;;;;;;;2.33;0.63;;;;;;;18.46;57.56;101438.63;5072552;28;21085;-68
2022/07/15 09:27:35;;;;;;;1.53;0.53;;;;;;;18.56;56.08;101434.66;5072645;28;21006;-69
2022/07/15 09:36:02;;;;;;;0.70;0.60;;;;;;;18.95;55.78;101435.34;5075909;28;20444;-69
2022/07/15 09:38:33;;;;;;;0.80;0.40;;;;;;;18.86;54.97;101435.44;5076500;28;20432;-70
2022/07/15 09:41:01;;;;;;;0.70;0.40;;;;;;;18.98;54.14;101443.69;5076455;28;20429;-68
2022/07/15 09:43:28;;;;;;;1.03;0.50;;;;;;;19.00;53.54;101443.38;5076848;28;20452;-69
2022/07/15 09:45:59;;;;;;;1.97;0.60;;;;;;;19.12;52.63;101447.00;5076493;28;20481;-69
2022/07/15 09:48:28;;;;;;;1.60;0.50;;;;;;;19.26;52.98;101443.13;5076408;28;20474;-69
2022/07/15 09:50:59;;;;;;;1.00;0.50;;;;;;;19.48;53.03;101448.22;5076591;28;20469;-69
2022/07/15 09:53:27;;;;;;;0.97;0.43;;;;;;;19.64;52.15;101446.44;5076442;28;20417;-69
2022/07/15 09:55:55;;;;;;;8.47;0.60;;;;;;;19.78;51.36;101446.13;5076022;28;20946;-69
2022/07/15 09:58:22;;;;;;;1.17;0.50;;;;;;;19.81;51.70;101452.88;5076332;28;20469;-68
2022/07/15 10:00:49;;;;;;;1.57;0.40;;;;;;;19.54;50.95;101452.34;5076182;28;20456;-71
2022/07/15 10:03:17;;;;;;;1.20;0.60;;;;;;;19.19;53.01;101438.19;5076228;28;20839;-68
2022/07/15 10:05:44;;;;;;;1.43;0.40;;;;;;;19.28;52.69;101449.88;5076151;28;20591;-69
2022/07/15 10:08:15;;;;;;;0.90;0.50;;;;;;;19.40;52.58;101452.66;5076185;28;20481;-69
2022/07/15 10:10:41;;;;;;;3.73;0.60;;;;;;;19.49;53.01;101449.03;5101190;22;20950;-72
2022/07/15 10:13:21;;;;;;;0.70;0.40;;;;;;;19.69;52.03;101445.41;5075986;28;20469;-72
2022/07/15 10:15:57;;;;;;;0.80;0.50;;;;;;;19.94;50.81;101448.19;5076280;28;20426;-72
2022/07/15 10:18:39;;;;;;;0.90;0.50;;;;;;;20.05;50.42;101460.34;5077006;28;20452;-73
2022/07/15 10:21:23;;;;;;;0.70;0.40;;;;;;;19.95;49.67;101450.59;5075601;28;20895;-72
2022/07/15 10:24:06;;;;;;;3.30;0.43;;;;;;;19.79;49.97;101453.25;5075763;28;20458;-72
2022/07/15 10:26:44;;;;;;;0.80;0.40;;;;;;;19.62;49.88;101459.75;5075530;28;20995;-72
2022/07/15 10:29:12;;;;;;;0.97;0.60;;;;;;;19.64;49.68;101451.13;5075891;28;20429;-72
2022/07/15 10:31:40;;;;;;;1.77;0.43;;;;;;;19.55;50.45;101458.66;5075654;28;20504;-72
2022/07/15 10:34:19;;;;;;;0.80;0.50;;;;;;;19.50;49.93;101458.88;5075579;28;20524;-72
2022/07/15 10:37:02;;;;;;;3.80;0.50;;;;;;;19.61;49.51;101457.31;5075662;28;20545;-72
2022/07/15 10:39:49;;;;;;;1.00;0.53;;;;;;;19.80;49.63;101449.34;5075587;28;20456;-72
2022/07/15 10:42:16;;;;;;;1.00;0.50;;;;;;;20.07;49.38;101452.56;5075263;28;20870;-72
2022/07/15 10:45:09;;;;;;;0.60;0.30;;;;;;;20.21;47.85;101447.50;5075135;28;20875;-72
2022/07/15 10:47:36;;;;;;;0.70;0.40;;;;;;;20.37;47.36;101445.66;5074517;28;20428;-72
2022/07/15 10:50:35;;;;;;;1.47;0.53;;;;;;;20.48;47.23;101456.22;5075342;28;20566;-72
2022/07/15 10:53:17;;;;;;;2.67;0.77;;;;;;;20.40;47.29;101447.69;5075355;28;20516;-72
2022/07/15 10:55:44;;;;;;;0.70;0.40;;;;;;;20.36;47.62;101441.31;5075374;28;20425;-72
2022/07/15 10:58:13;;;;;;;1.73;0.73;;;;;;;20.47;47.81;101449.06;5075252;28;20512;-72
2022/07/15 11:00:41;;;;;;;0.70;0.40;;;;;;;20.61;48.78;101449.53;5075085;28;20548;-72
2022/07/15 11:03:11;;;;;;;0.87;0.43;;;;;;;20.59;47.00;101444.38;5075123;28;20871;-72
2022/07/15 11:06:02;;;;;;;2.10;0.50;;;;;;;20.52;47.84;101443.34;5074988;28;20470;-71
2022/07/15 11:08:55;;;;;;;0.70;0.50;;;;;;;20.70;46.79;101436.41;5074741;28;20986;-72
2022/07/15 11:11:47;;;;;;;1.07;0.50;;;;;;;20.57;47.01;101437.59;5074648;28;20477;-72
2022/07/15 11:14:45;;;;;;;0.80;0.40;;;;;;;20.43;48.25;101454.47;5075185;28;20451;-72
2022/07/15 11:17:16;;;;;;;1.23;0.60;;;;;;;20.04;49.29;101443.03;5073505;28;20898;-72
2022/07/15 11:19:43;;;;;;;1.77;0.40;;;;;;;20.07;48.76;101458.06;5074737;28;20437;-72
2022/07/15 11:22:10;;;;;;;0.73;0.47;;;;;;;19.96;47.99;101445.91;5074410;28;20540;-72
2022/07/15 11:24:37;;;;;;;1.33;0.40;;;;;;;20.12;48.41;101444.88;5074635;28;20532;-72
2022/07/15 11:27:03;;;;;;;1.30;0.73;;;;;;;20.54;47.75;101449.31;5074511;28;20576;-72
2022/07/15 11:29:42;;;;;;;2.00;0.63;;;;;;;20.74;47.21;101442.84;5074544;28;20442;-72
2022/07/15 11:32:09;;;;;;;0.80;0.50;;;;;;;20.76;47.54;101443.31;5074556;28;20479;-72
2022/07/15 11:34:40;;;;;;;0.60;0.33;;;;;;;20.70;46.86;101446.63;5074454;28;20504;-72
2022/07/15 11:37:07;;;;;;;0.70;0.40;;;;;;;20.60;48.27;101454.25;5074446;28;20795;-72
2022/07/15 11:39:34;;;;;;;0.70;0.40;;;;;;;20.45;49.01;101457.66;5074388;28;20524;-72